Time;durP1;ratioP1;P1;durP2;ratioP2;P2;SDS_P1;SDS_P2;PMS_P1;PMS_P2;Temp;Humidity;BMP_temperature;BMP_pressure;BME280_temperature;BME280_humidity;BME280_pressure;Samples;Min_cycle;Max_cycle;Signal;HPM_P1;HPM_P2
2021/07/30 00:01:47;;;;;;;8.6;7.7;;;;;;;17.69;89.10449;935.5098;;;;
2021/07/30 00:04:13;;;;;;;8.9;7.6;;;;;;;17.66;89.39844;935.5263;;;;
2021/07/30 00:06:38;;;;;;;10.6;8;;;;;;;17.58;89.77637;935.5206;;;;
2021/07/30 00:09:05;;;;;;;8.7;7.8;;;;;;;17.62;90.04102;935.5457;;;;
2021/07/30 00:11:29;;;;;;;8.5;7.7;;;;;;;17.48;90.08105;935.4808;;;;
2021/07/30 00:13:58;;;;;;;9.1;8.1;;;;;;;17.32;91.1377;935.4711;;;;
2021/07/30 00:16:23;;;;;;;9.6;7.6;;;;;;;17.37;90.95215;935.4756;;;;
2021/07/30 00:18:49;;;;;;;9.7;8.2;;;;;;;17.46;89.64844;935.4803;;;;
2021/07/30 00:21:14;;;;;;;10.5;8.3;;;;;;;17.54;89.25879;935.3369;;;;
2021/07/30 00:23:40;;;;;;;9.6;8;;;;;;;17.56;88.70508;935.3181;;;;
2021/07/30 00:26:05;;;;;;;11;7.9;;;;;;;17.56;89.44824;935.475;;;;
2021/07/30 00:28:31;;;;;;;9.9;8.5;;;;;;;17.56;89.04395;935.3767;;;;
2021/07/30 00:30:56;;;;;;;9.4;8.3;;;;;;;17.61;88.05273;935.4539;;;;
2021/07/30 00:33:24;;;;;;;9.5;8.3;;;;;;;17.64;88.01367;935.4647;;;;
2021/07/30 00:35:49;;;;;;;10;8.2;;;;;;;17.55;88.06348;935.4278;;;;
2021/07/30 00:38:15;;;;;;;9.5;8.4;;;;;;;17.54;88.40039;935.4972;;;;
2021/07/30 00:40:41;;;;;;;8.6;7.7;;;;;;;17.58;88.49023;935.4207;;;;
2021/07/30 00:43:08;;;;;;;10;7.9;;;;;;;17.51;88.77734;935.4519;;;;
2021/07/30 00:45:33;;;;;;;9.2;8.3;;;;;;;17.5;88.55371;935.4442;;;;
2021/07/30 00:47:59;;;;;;;9.2;8.1;;;;;;;17.44;88.7168;935.4236;;;;
2021/07/30 00:50:24;;;;;;;10.2;7.8;;;;;;;17.41;88.94336;935.3813;;;;
2021/07/30 00:52:51;;;;;;;8.4;7.6;;;;;;;17.29;89.55371;935.5071;;;;
2021/07/30 00:55:17;;;;;;;9.3;7.7;;;;;;;17.23;89.64844;935.481;;;;
2021/07/30 00:57:44;;;;;;;10.3;8.4;;;;;;;17.28;89.18262;935.4317;;;;
2021/07/30 01:00:09;;;;;;;9.5;8.5;;;;;;;17.3;89.42969;935.4249;;;;
2021/07/30 01:02:37;;;;;;;10.6;8.7;;;;;;;17.31;89.31543;935.4414;;;;
2021/07/30 01:05:02;;;;;;;10.1;8.3;;;;;;;17.41;88.87109;935.3267;;;;
2021/07/30 01:07:27;;;;;;;8.8;7.9;;;;;;;17.22;89.85547;935.3411;;;;
2021/07/30 01:09:52;;;;;;;9;8.1;;;;;;;17.27;89.56348;935.3127;;;;
2021/07/30 01:12:17;;;;;;;9.6;8;;;;;;;17.35;89.11621;935.2628;;;;
2021/07/30 01:14:44;;;;;;;8.4;7.5;;;;;;;17.33;88.93848;935.2969;;;;
2021/07/30 01:17:09;;;;;;;10;7.4;;;;;;;17.29;89.15137;935.2808;;;;
2021/07/30 01:19:34;;;;;;;12.1;8;;;;;;;17.23;89.70605;935.2821;;;;
2021/07/30 01:22:00;;;;;;;9.4;8.1;;;;;;;17.19;89.70898;935.3422;;;;
2021/07/30 01:24:26;;;;;;;8.8;7.9;;;;;;;17.24;89.69531;935.3239;;;;
2021/07/30 01:26:54;;;;;;;9.6;8.6;;;;;;;17.28;89.18262;935.3962;;;;
2021/07/30 01:29:19;;;;;;;9.5;8.5;;;;;;;17.26;89.50293;935.394;;;;
2021/07/30 01:32:22;;;;;;;9.5;7.9;;;;;;;17.17;89.92676;935.4045;;;;
2021/07/30 01:34:50;;;;;;;9.4;8.4;;;;;;;17.16;89.88672;935.4217;;;;
2021/07/30 01:37:15;;;;;;;8.9;8;;;;;;;17.2;89.16797;935.4208;;;;
2021/07/30 01:39:44;;;;;;;9.1;8.1;;;;;;;17.28;89.10059;935.4437;;;;
2021/07/30 01:42:09;;;;;;;9.4;8.1;;;;;;;17.34;89.06543;935.4778;;;;
2021/07/30 01:44:36;;;;;;;9.5;7.7;;;;;;;17.36;89.00195;935.462;;;;
2021/07/30 01:47:06;;;;;;;9.9;8.3;;;;;;;17.31;88.79492;935.414;;;;
2021/07/30 01:49:29;;;;;;;8.9;8;;;;;;;17.3;89.08105;935.4224;;;;
2021/07/30 01:51:55;;;;;;;8.9;8;;;;;;;17.32;89.1084;935.397;;;;
2021/07/30 01:54:20;;;;;;;8.7;7.7;;;;;;;17.34;89.28613;935.4626;;;;
2021/07/30 01:56:47;;;;;;;9.2;7.9;;;;;;;17.35;89.44043;935.4382;;;;
2021/07/30 01:59:12;;;;;;;8.9;7.9;;;;;;;17.38;89.2041;935.4166;;;;
2021/07/30 02:01:41;;;;;;;10.6;8;;;;;;;17.47;88.71191;935.4278;;;;
2021/07/30 02:04:10;;;;;;;8.8;7.9;;;;;;;17.55;88.20508;935.4189;;;;
2021/07/30 02:06:35;;;;;;;9;7.6;;;;;;;17.58;88.18848;935.3875;;;;
2021/07/30 02:09:05;;;;;;;8.8;7.9;;;;;;;17.53;88.38477;935.3703;;;;
2021/07/30 02:11:30;;;;;;;8.3;7.4;;;;;;;17.46;88.70801;935.4714;;;;
2021/07/30 02:14:15;;;;;;;9.4;7.4;;;;;;;17.35;89.33594;935.509;;;;
2021/07/30 02:16:30;;;;;;;9.5;7.7;;;;;;;17.36;89.34961;935.4396;;;;
2021/07/30 02:18:55;;;;;;;9.3;8.1;;;;;;;17.37;89.32617;935.4773;;;;
2021/07/30 02:21:20;;;;;;;8.2;7.4;;;;;;;17.34;89.61035;935.4842;;;;
2021/07/30 02:23:51;;;;;;;9.8;7.9;;;;;;;17.34;89.71484;935.4771;;;;
2021/07/30 02:26:19;;;;;;;8.5;7.6;;;;;;;17.42;89.35059;935.4772;;;;
2021/07/30 02:28:44;;;;;;;9;8;;;;;;;17.46;88.94043;935.473;;;;
2021/07/30 02:31:13;;;;;;;9;8.1;;;;;;;17.51;88.625;935.4319;;;;
2021/07/30 02:33:44;;;;;;;10.8;8.2;;;;;;;17.51;88.6709;935.4722;;;;
2021/07/30 02:36:09;;;;;;;8.8;7.7;;;;;;;17.49;89.08496;935.4113;;;;
2021/07/30 02:38:36;;;;;;;11;8.2;;;;;;;17.49;89.58594;935.4322;;;;
2021/07/30 02:41:01;;;;;;;10.7;8.1;;;;;;;17.6;88.81934;935.54;;;;
2021/07/30 02:43:30;;;;;;;8.7;7.7;;;;;;;17.59;88.88477;935.4978;;;;
2021/07/30 02:45:58;;;;;;;9.6;7.7;;;;;;;17.58;89.51172;935.3642;;;;
2021/07/30 02:48:23;;;;;;;9.7;8.1;;;;;;;17.6;88.8418;935.4305;;;;
2021/07/30 02:51:53;;;;;;;8.9;8;;;;;;;17.56;89.09961;935.3945;;;;
2021/07/30 02:54:22;;;;;;;11.2;8.6;;;;;;;17.52;89.11426;935.4091;;;;
2021/07/30 02:56:47;;;;;;;10.4;8;;;;;;;17.51;89.31152;935.4037;;;;
2021/07/30 02:59:12;;;;;;;8.7;7.8;;;;;;;17.59;89.11719;935.4542;;;;
2021/07/30 03:01:37;;;;;;;8.7;7.9;;;;;;;17.66;88.98242;935.4055;;;;
2021/07/30 03:04:02;;;;;;;10.7;8.1;;;;;;;17.73;88.42676;935.4895;;;;
2021/07/30 03:06:30;;;;;;;10.4;8.3;;;;;;;17.66;88.42383;935.4506;;;;
2021/07/30 03:08:55;;;;;;;8.7;7.8;;;;;;;17.64;88.93066;935.4622;;;;
2021/07/30 03:11:24;;;;;;;11.2;8.5;;;;;;;17.71;88.24902;935.4183;;;;
2021/07/30 03:13:53;;;;;;;10.3;7.8;;;;;;;17.7;88.4209;935.4249;;;;
2021/07/30 03:16:19;;;;;;;9;7.9;;;;;;;17.7;88.22168;935.454;;;;
2021/07/30 03:18:49;;;;;;;9.4;8.2;;;;;;;17.62;87.67188;935.3967;;;;
2021/07/30 03:21:18;;;;;;;12.8;8.6;;;;;;;17.54;89.08496;935.3851;;;;
2021/07/30 03:23:43;;;;;;;8.8;7.9;;;;;;;17.51;89.53125;935.4222;;;;
2021/07/30 03:31:06;;;;;;;8.4;7.6;;;;;;;17.54;89.56055;935.3717;;;;
2021/07/30 03:33:31;;;;;;;9.7;7.9;;;;;;;17.62;89.19434;935.3628;;;;
2021/07/30 03:36:01;;;;;;;8.8;7.8;;;;;;;17.67;89.05176;935.3948;;;;
2021/07/30 03:38:31;;;;;;;8.9;7.7;;;;;;;17.7;89.09277;935.4146;;;;
2021/07/30 03:40:56;;;;;;;9;7.6;;;;;;;17.75;89.27734;935.4448;;;;
2021/07/30 03:43:56;;;;;;;8.9;7.5;;;;;;;17.73;88.25098;935.4236;;;;
2021/07/30 03:46:16;;;;;;;8.7;7.6;;;;;;;17.78;88.26172;935.4289;;;;
2021/07/30 03:48:44;;;;;;;10.7;7.6;;;;;;;17.84;88.18359;935.4519;;;;
2021/07/30 03:51:09;;;;;;;10;8.3;;;;;;;17.84;88.25293;935.3784;;;;
2021/07/30 03:53:37;;;;;;;10;7.7;;;;;;;17.83;88.74805;935.5053;;;;
2021/07/30 03:56:02;;;;;;;10.2;7.6;;;;;;;17.85;88.64746;935.5023;;;;
2021/07/30 03:58:29;;;;;;;10.3;8.1;;;;;;;17.91;88.40527;935.5171;;;;
2021/07/30 04:02:35;;;;;;;8.6;7.6;;;;;;;17.7;88.8252;935.4411;;;;
2021/07/30 04:05:00;;;;;;;10.3;8;;;;;;;17.49;89.97852;935.5748;;;;
2021/07/30 04:07:27;;;;;;;9.5;7.7;;;;;;;17.56;90.02832;935.5861;;;;
2021/07/30 04:09:54;;;;;;;8.6;7.8;;;;;;;17.58;89.75293;935.4584;;;;
2021/07/30 04:12:17;;;;;;;9;7.7;;;;;;;17.64;89.5459;935.5258;;;;
2021/07/30 04:20:03;;;;;;;8.8;7.2;;;;;;;17.38;90.96582;935.3683;;;;
2021/07/30 04:22:28;;;;;;;8.7;7.5;;;;;;;17.41;91.19336;935.4706;;;;
2021/07/30 04:24:55;;;;;;;8.7;7.8;;;;;;;17.51;90.57617;935.468;;;;
2021/07/30 04:27:20;;;;;;;10.2;8.3;;;;;;;17.65;90;935.4791;;;;
2021/07/30 04:29:48;;;;;;;9.3;8.1;;;;;;;17.69;89.70801;935.4655;;;;
2021/07/30 04:32:14;;;;;;;8.6;7.7;;;;;;;17.79;89.05469;935.4931;;;;
2021/07/30 04:34:41;;;;;;;9.7;7.3;;;;;;;17.85;89.28613;935.5234;;;;
2021/07/30 04:37:06;;;;;;;9;7.4;;;;;;;17.85;89.53223;935.6063;;;;
2021/07/30 04:39:34;;;;;;;12;8.2;;;;;;;17.9;89.55273;935.6091;;;;
2021/07/30 04:41:59;;;;;;;10.9;7.9;;;;;;;17.98;88.5918;935.6799;;;;
2021/07/30 04:44:26;;;;;;;10.5;7.8;;;;;;;17.94;88.375;935.6236;;;;
2021/07/30 04:46:51;;;;;;;9.1;7.7;;;;;;;18.08;88.35645;935.6763;;;;
2021/07/30 04:49:16;;;;;;;11.8;7.9;;;;;;;18.12;87.94727;935.6052;;;;
2021/07/30 04:51:43;;;;;;;11.9;8.1;;;;;;;18.21;87.28125;935.5513;;;;
2021/07/30 04:54:08;;;;;;;8.3;7.5;;;;;;;18.23;87.02734;935.5342;;;;
2021/07/30 04:56:41;;;;;;;10.6;7.9;;;;;;;18.25;87.71875;935.62;;;;
2021/07/30 04:59:09;;;;;;;9.2;7.6;;;;;;;18.29;87.69043;935.5449;;;;
2021/07/30 05:01:40;;;;;;;9.4;7.9;;;;;;;18.37;87.88086;935.5591;;;;
2021/07/30 05:03:59;;;;;;;11.4;7.5;;;;;;;18.46;87.29297;935.6103;;;;
2021/07/30 05:06:25;;;;;;;8.7;7.2;;;;;;;18.47;87.85645;935.5115;;;;
2021/07/30 05:08:50;;;;;;;8.3;7.5;;;;;;;18.38;88.25488;935.5225;;;;
2021/07/30 05:11:17;;;;;;;8.7;7.8;;;;;;;18.39;87.55957;935.5699;;;;
2021/07/30 05:13:42;;;;;;;11.2;7.8;;;;;;;18.35;88.44727;935.5499;;;;
2021/07/30 05:16:08;;;;;;;8.5;7.6;;;;;;;18.4;88.19043;935.4719;;;;
2021/07/30 05:18:34;;;;;;;11.5;7.8;;;;;;;18.37;88.18359;935.4325;;;;
2021/07/30 05:21:06;;;;;;;10.7;8.1;;;;;;;18.4;88.02832;935.4969;;;;
2021/07/30 05:23:34;;;;;;;8.9;7.8;;;;;;;18.37;88.74121;935.5316;;;;
2021/07/30 05:26:06;;;;;;;14.5;8.1;;;;;;;18.44;88.60352;935.4537;;;;
2021/07/30 05:28:35;;;;;;;12.5;8.1;;;;;;;18.47;87.90332;935.4455;;;;
2021/07/30 05:31:01;;;;;;;12.9;8;;;;;;;18.58;87.77148;935.4614;;;;
2021/07/30 05:33:29;;;;;;;12.2;8.4;;;;;;;18.59;87.1084;935.5458;;;;
2021/07/30 05:35:58;;;;;;;10.3;7.9;;;;;;;18.67;87.10547;935.532;;;;
2021/07/30 05:38:27;;;;;;;11;7.9;;;;;;;18.73;87.30176;935.4765;;;;
2021/07/30 05:40:57;;;;;;;13.6;7.9;;;;;;;18.83;86.87891;935.4007;;;;
2021/07/30 05:43:22;;;;;;;11.3;7.9;;;;;;;18.89;86.56445;935.4766;;;;
2021/07/30 05:45:53;;;;;;;10.4;7.8;;;;;;;18.96;85.41602;935.4745;;;;
2021/07/30 05:48:22;;;;;;;9.8;7.5;;;;;;;18.94;86.03906;935.447;;;;
2021/07/30 05:50:47;;;;;;;12.6;8.6;;;;;;;19.01;85.37793;935.383;;;;
2021/07/30 05:53:12;;;;;;;10.3;7.8;;;;;;;;;;;;;
2021/07/30 05:55:37;;;;;;;9.1;6.8;;;;;;;;;;;;;
2021/07/30 05:58:03;;;;;;;11.1;7.4;;;;;;;;;;;;;
2021/07/30 06:00:28;;;;;;;9.9;7.2;;;;;;;;;;;;;
2021/07/30 06:02:53;;;;;;;8.8;7.4;;;;;;;;;;;;;
2021/07/30 06:05:18;;;;;;;10.7;7.3;;;;;;;;;;;;;
2021/07/30 06:07:44;;;;;;;9;6.5;;;;;;;;;;;;;
2021/07/30 06:10:09;;;;;;;9;6.8;;;;;;;;;;;;;
2021/07/30 06:12:35;;;;;;;8.7;6.5;;;;;;;;;;;;;
2021/07/30 06:15:01;;;;;;;7;6.3;;;;;;;;;;;;;
2021/07/30 06:17:28;;;;;;;8.3;7;;;;;;;;;;;;;
2021/07/30 06:19:53;;;;;;;8.8;6.4;;;;;;;;;;;;;
2021/07/30 06:22:20;;;;;;;10;6.9;;;;;;;;;;;;;
2021/07/30 06:27:41;;;;;;;9.2;6.5;;;;;;;;;;;;;
2021/07/30 06:30:06;;;;;;;9;6.3;;;;;;;;;;;;;
2021/07/30 06:32:33;;;;;;;8.3;6.3;;;;;;;;;;;;;
2021/07/30 06:34:58;;;;;;;7.3;5.9;;;;;;;;;;;;;
2021/07/30 06:37:24;;;;;;;9.3;6;;;;;;;;;;;;;
2021/07/30 06:39:49;;;;;;;7.4;5.1;;;;;;;;;;;;;
2021/07/30 06:42:14;;;;;;;10.5;6;;;;;;;;;;;;;
2021/07/30 06:44:39;;;;;;;5.5;5;;;;;;;;;;;;;
2021/07/30 06:47:04;;;;;;;6.5;5.5;;;;;;;;;;;;;
2021/07/30 06:49:29;;;;;;;6.2;5.1;;;;;;;;;;;;;
2021/07/30 06:51:55;;;;;;;8.6;5.5;;;;;;;;;;;;;
2021/07/30 06:54:20;;;;;;;5.3;4.8;;;;;;;;;;;;;
2021/07/30 06:56:46;;;;;;;5.7;5.1;;;;;;;;;;;;;
2021/07/30 06:59:11;;;;;;;6.1;5.1;;;;;;;;;;;;;
2021/07/30 07:01:43;;;;;;;6.5;5.8;;;;;;;;;;;;;
2021/07/30 07:04:11;;;;;;;5.5;4.9;;;;;;;;;;;;;
2021/07/30 07:06:27;;;;;;;7.1;5.2;;;;;;;;;;;;;
2021/07/30 07:08:52;;;;;;;7.2;4.7;;;;;;;;;;;;;
2021/07/30 07:11:19;;;;;;;4.9;4.4;;;;;;;;;;;;;
2021/07/30 07:13:44;;;;;;;5.1;4.6;;;;;;;;;;;;;
2021/07/30 07:16:10;;;;;;;6.3;4.8;;;;;;;;;;;;;
2021/07/30 07:18:35;;;;;;;5.9;4.5;;;;;;;;;;;;;
2021/07/30 07:21:01;;;;;;;9.8;4.8;;;;;;;;;;;;;
2021/07/30 07:23:27;;;;;;;5;4.5;;;;;;;;;;;;;
2021/07/30 07:25:52;;;;;;;4.4;4;;;;;;;;;;;;;
2021/07/30 07:28:17;;;;;;;4.6;4.2;;;;;;;;;;;;;
2021/07/30 07:30:42;;;;;;;5.3;4.5;;;;;;;;;;;;;
2021/07/30 07:33:07;;;;;;;4.2;3.6;;;;;;;;;;;;;
2021/07/30 07:35:32;;;;;;;4.1;3.7;;;;;;;;;;;;;
2021/07/30 07:38:08;;;;;;;4.1;3.7;;;;;;;;;;;;;
2021/07/30 07:40:24;;;;;;;4.2;3.7;;;;;;;;;;;;;
2021/07/30 07:42:49;;;;;;;4.7;3.8;;;;;;;;;;;;;
2021/07/30 07:45:16;;;;;;;5.4;3.9;;;;;;;;;;;;;
2021/07/30 07:47:41;;;;;;;4;3.6;;;;;;;;;;;;;
2021/07/30 07:50:06;;;;;;;4.9;4.2;;;;;;;;;;;;;
2021/07/30 07:52:31;;;;;;;4.5;4.1;;;;;;;;;;;;;
2021/07/30 07:54:57;;;;;;;4.1;3.7;;;;;;;;;;;;;
2021/07/30 07:57:22;;;;;;;5.2;4;;;;;;;;;;;;;
2021/07/30 07:59:47;;;;;;;4.2;3.9;;;;;;;;;;;;;
2021/07/30 08:02:12;;;;;;;4;3.7;;;;;;;;;;;;;
2021/07/30 08:04:38;;;;;;;4.2;3.8;;;;;;;;;;;;;
2021/07/30 08:07:03;;;;;;;3.8;3.4;;;;;;;;;;;;;
2021/07/30 08:09:29;;;;;;;3.8;3.5;;;;;;;;;;;;;
2021/07/30 08:11:54;;;;;;;3.9;3.5;;;;;;;;;;;;;
2021/07/30 08:14:20;;;;;;;4.1;3.7;;;;;;;;;;;;;
2021/07/30 08:16:46;;;;;;;4.1;3.7;;;;;;;;;;;;;
2021/07/30 08:19:13;;;;;;;4.9;3.8;;;;;;;;;;;;;
2021/07/30 08:21:41;;;;;;;4.5;3.6;;;;;;;;;;;;;
2021/07/30 08:24:32;;;;;;;4.3;3.9;;;;;;;;;;;;;
2021/07/30 08:27:03;;;;;;;4.2;3.3;;;;;;;;;;;;;
2021/07/30 08:29:37;;;;;;;4.1;3.6;;;;;;;;;;;;;
2021/07/30 15:14:29;;;;;;;3.8;3.4;;;;;;;27.72;56.25781;931.6011;;;;
2021/07/30 15:16:57;;;;;;;7.5;6.7;;;;;;;27.77;55.8252;931.5285;;;;
2021/07/30 15:19:23;;;;;;;8.2;7.4;;;;;;;27.33;56.03027;931.6133;;;;
2021/07/30 15:21:48;;;;;;;8.4;6.9;;;;;;;27.09;55.97852;931.6944;;;;
2021/07/30 15:24:18;;;;;;;10.5;7.8;;;;;;;27.05;56.4834;931.738;;;;
2021/07/30 15:26:48;;;;;;;7.7;6.9;;;;;;;26.95;56.49316;931.7759;;;;
2021/07/30 15:29:19;;;;;;;7.8;7;;;;;;;26.91;57.35449;931.8223;;;;
2021/07/30 15:31:44;;;;;;;10.1;7.4;;;;;;;26.47;62.40137;932.0039;;;;
2021/07/30 15:34:12;;;;;;;14.1;8.2;;;;;;;26.19;68.02832;932.0646;;;;
2021/07/30 15:36:45;;;;;;;15.2;9.2;;;;;;;26.01;71.73633;932.1277;;;;
2021/07/30 15:39:17;;;;;;;17.9;10;;;;;;;25.58;76.2998;932.1097;;;;
2021/07/30 15:41:41;;;;;;;14;9.5;;;;;;;25.45;75.15723;932.3199;;;;
2021/07/30 15:44:09;;;;;;;12;9.2;;;;;;;24.96;76.4668;932.5128;;;;
2021/07/30 15:46:34;;;;;;;14;10;;;;;;;24.82;77.85742;932.6113;;;;
2021/07/30 15:49:05;;;;;;;14.7;10.4;;;;;;;24.67;80.48438;932.676;;;;
2021/07/30 15:51:30;;;;;;;16.9;10.2;;;;;;;24.08;80.00098;932.8077;;;;
2021/07/30 15:53:57;;;;;;;11.9;9.3;;;;;;;24.11;75.8252;932.7516;;;;
2021/07/30 15:56:22;;;;;;;12.4;9.6;;;;;;;24.38;79.41797;932.5421;;;;
2021/07/30 15:58:49;;;;;;;12.5;10;;;;;;;24.67;77.94824;932.527;;;;
2021/07/30 16:01:14;;;;;;;13.8;10.6;;;;;;;24.98;80.42188;932.6306;;;;
2021/07/30 16:03:40;;;;;;;13.7;9.9;;;;;;;25.22;77.9502;932.6459;;;;
2021/07/30 16:06:04;;;;;;;13.8;10;;;;;;;25.28;76.39063;932.6884;;;;
2021/07/30 16:08:31;;;;;;;12.1;9.9;;;;;;;24.79;76.59082;932.856;;;;
2021/07/30 16:10:56;;;;;;;10.7;9.2;;;;;;;24.74;76.52344;932.8056;;;;
2021/07/30 16:13:21;;;;;;;13.6;9.5;;;;;;;24.42;78.43555;932.7209;;;;
2021/07/30 16:15:53;;;;;;;11.4;9.7;;;;;;;24.46;79.67969;932.7522;;;;
2021/07/30 16:18:25;;;;;;;10;8.9;;;;;;;24.27;77.4209;932.7065;;;;
2021/07/30 16:20:53;;;;;;;10.7;8.4;;;;;;;24.44;77.76758;932.8083;;;;
2021/07/30 16:23:22;;;;;;;11.7;8.8;;;;;;;24.73;78.4541;932.8169;;;;
2021/07/30 16:25:54;;;;;;;9.7;8.7;;;;;;;24.52;79.47852;932.7555;;;;
2021/07/30 16:28:22;;;;;;;10.5;8.7;;;;;;;24.72;79.78516;932.697;;;;
2021/07/30 16:30:53;;;;;;;10.1;9.1;;;;;;;24.59;79.71582;932.6361;;;;
2021/07/30 16:33:18;;;;;;;9.2;8.3;;;;;;;24.03;83.75977;932.6563;;;;
2021/07/30 16:35:50;;;;;;;10.2;8.6;;;;;;;24.09;81.17969;932.6378;;;;
2021/07/30 16:38:18;;;;;;;10.3;9;;;;;;;24.15;80.69629;932.6004;;;;
2021/07/30 16:40:43;;;;;;;10.7;9.6;;;;;;;24.35;82.68848;932.6144;;;;
2021/07/30 16:43:11;;;;;;;11.1;9.9;;;;;;;24.43;82.95117;932.5117;;;;
2021/07/30 16:45:42;;;;;;;12;9.7;;;;;;;24.53;82.63965;932.5375;;;;
2021/07/30 16:48:20;;;;;;;11.1;9.3;;;;;;;24.32;82.43457;932.3158;;;;
2021/07/30 16:50:37;;;;;;;10.5;8.8;;;;;;;24.47;82.68652;932.3805;;;;
2021/07/30 16:53:06;;;;;;;11.1;9.3;;;;;;;24.6;80.08301;932.4285;;;;
2021/07/30 16:55:31;;;;;;;11.1;9.2;;;;;;;24.66;79.9043;932.4446;;;;
2021/07/30 16:58:00;;;;;;;11;9.3;;;;;;;24.72;79.92676;932.3247;;;;
2021/07/30 17:00:35;;;;;;;10.2;8.5;;;;;;;24.69;77.26855;932.4084;;;;
2021/07/30 17:03:07;;;;;;;10.1;9;;;;;;;24.61;77.91504;932.4022;;;;
2021/07/30 17:05:42;;;;;;;10.6;9.6;;;;;;;24.31;81.24414;932.3339;;;;
2021/07/30 17:07:57;;;;;;;10.6;9.2;;;;;;;24.19;81.26855;932.3398;;;;
2021/07/30 17:10:23;;;;;;;11.1;9.3;;;;;;;24.11;81.19629;932.2469;;;;
2021/07/30 17:12:51;;;;;;;10.4;9.1;;;;;;;24.12;79.5498;932.1594;;;;
2021/07/30 17:15:16;;;;;;;10.3;9.3;;;;;;;24.04;80.08789;932.1116;;;;
2021/07/30 17:17:46;;;;;;;10.4;9;;;;;;;24.12;80.76074;932.1646;;;;
2021/07/30 17:20:11;;;;;;;10.6;9.5;;;;;;;23.97;81.25293;932.5211;;;;
2021/07/30 17:22:39;;;;;;;11;9.8;;;;;;;22.98;84.19629;933.6451;;;;
2021/07/30 17:25:06;;;;;;;7.3;6.6;;;;;;;21.9;80.27832;933.9648;;;;
2021/07/30 17:27:35;;;;;;;6.8;4.3;;;;;;;20.82;76.35352;935.053;;;;
2021/07/30 17:29:58;;;;;;;8.3;3.7;;;;;;;19.38;81.70996;935.2397;;;;
2021/07/30 17:32:24;;;;;;;8;3.3;;;;;;;18.77;82.15332;935.336;;;;
2021/07/30 17:34:50;;;;;;;4.4;3.2;;;;;;;18.88;83.93359;935.113;;;;
2021/07/30 17:37:20;;;;;;;5.8;3.1;;;;;;;19;81.64941;935.0274;;;;
2021/07/30 17:39:50;;;;;;;5.3;3;;;;;;;19.17;80.65625;935.1027;;;;
2021/07/30 17:42:16;;;;;;;5;3;;;;;;;19.06;79.91699;935.205;;;;
2021/07/30 17:44:44;;;;;;;4.6;3.1;;;;;;;18.98;81.56641;935.0818;;;;
2021/07/30 17:47:10;;;;;;;4.7;3.1;;;;;;;18.9;81.64453;935.072;;;;
2021/07/30 17:49:41;;;;;;;5.1;2.8;;;;;;;18.74;81.98633;934.9979;;;;
2021/07/30 17:52:07;;;;;;;4.6;2.8;;;;;;;18.58;83.44336;934.9769;;;;
2021/07/30 17:54:35;;;;;;;4.9;3.4;;;;;;;18.65;83.85645;935.1534;;;;
2021/07/30 17:57:00;;;;;;;5.3;2.9;;;;;;;18.51;82.1875;935.16;;;;
2021/07/30 17:59:27;;;;;;;4.7;3.1;;;;;;;18.56;81.52246;935.1021;;;;
2021/07/30 18:01:52;;;;;;;4;2.7;;;;;;;18.62;82.5332;935.041;;;;
2021/07/30 18:04:20;;;;;;;5.5;3.5;;;;;;;18.63;84.50195;935.0267;;;;
2021/07/30 18:06:45;;;;;;;5.4;3.1;;;;;;;18.63;83.9541;935.0244;;;;
2021/07/30 18:09:11;;;;;;;5.1;3.2;;;;;;;18.66;83.13477;934.7541;;;;
2021/07/30 18:11:36;;;;;;;4.9;3.1;;;;;;;18.83;84.20313;934.8117;;;;
2021/07/30 18:14:02;;;;;;;5.2;3.4;;;;;;;;;;;;;
2021/07/30 18:16:26;;;;;;;5.4;3.5;;;;;;;;;;;;;
2021/07/30 18:18:54;;;;;;;5.9;3.4;;;;;;;;;;;;;
2021/07/30 18:21:19;;;;;;;4.4;3.1;;;;;;;;;;;;;
2021/07/30 18:23:44;;;;;;;4.3;3.2;;;;;;;;;;;;;
2021/07/30 18:26:09;;;;;;;6.2;3.4;;;;;;;;;;;;;
2021/07/30 18:28:36;;;;;;;5.6;3.2;;;;;;;;;;;;;
2021/07/30 18:31:03;;;;;;;6.5;3.6;;;;;;;;;;;;;
2021/07/30 18:33:29;;;;;;;5.8;3.7;;;;;;;;;;;;;
2021/07/30 18:35:54;;;;;;;4.7;2.7;;;;;;;;;;;;;
2021/07/30 18:38:19;;;;;;;3.9;2.8;;;;;;;;;;;;;
2021/07/30 18:40:45;;;;;;;4.2;3.1;;;;;;;;;;;;;
2021/07/30 18:43:11;;;;;;;6.5;3.4;;;;;;;;;;;;;
2021/07/30 18:45:35;;;;;;;4;3.1;;;;;;;;;;;;;
2021/07/30 18:48:01;;;;;;;5;3.3;;;;;;;;;;;;;
2021/07/30 18:50:26;;;;;;;4.2;3.5;;;;;;;;;;;;;
2021/07/30 18:52:51;;;;;;;4.1;3.4;;;;;;;;;;;;;
2021/07/30 18:55:16;;;;;;;5.4;3.6;;;;;;;;;;;;;
2021/07/30 18:57:41;;;;;;;4.8;3.4;;;;;;;;;;;;;
2021/07/30 19:00:08;;;;;;;5.6;3.4;;;;;;;;;;;;;
2021/07/30 19:02:33;;;;;;;5.4;3.4;;;;;;;;;;;;;
2021/07/30 19:04:58;;;;;;;4.7;3.9;;;;;;;;;;;;;
2021/07/30 19:07:23;;;;;;;5.2;4;;;;;;;;;;;;;
2021/07/30 19:09:48;;;;;;;5.7;3.9;;;;;;;;;;;;;
2021/07/30 19:12:14;;;;;;;5.4;4.3;;;;;;;;;;;;;
2021/07/30 19:14:39;;;;;;;4.1;3.3;;;;;;;;;;;;;
2021/07/30 19:17:05;;;;;;;5.7;3.9;;;;;;;;;;;;;
2021/07/30 19:19:30;;;;;;;5.1;3.8;;;;;;;;;;;;;
2021/07/30 19:21:57;;;;;;;6.5;3.9;;;;;;;;;;;;;
2021/07/30 19:24:24;;;;;;;7.4;3.8;;;;;;;;;;;;;
2021/07/30 19:26:47;;;;;;;4.5;3.8;;;;;;;;;;;;;
2021/07/30 19:29:12;;;;;;;6.1;3.8;;;;;;;;;;;;;
2021/07/30 19:31:37;;;;;;;4.5;3.7;;;;;;;;;;;;;
2021/07/30 19:34:02;;;;;;;5.1;4.1;;;;;;;;;;;;;
2021/07/30 19:36:29;;;;;;;7;4.3;;;;;;;;;;;;;
2021/07/30 19:38:54;;;;;;;6.4;4.5;;;;;;;;;;;;;
2021/07/30 19:41:20;;;;;;;6.1;4.3;;;;;;;;;;;;;
2021/07/30 19:43:45;;;;;;;7.8;4.5;;;;;;;;;;;;;
2021/07/30 19:46:10;;;;;;;5.7;4.4;;;;;;;;;;;;;
2021/07/30 19:48:36;;;;;;;7.2;5;;;;;;;;;;;;;
2021/07/30 19:51:03;;;;;;;5.1;4.2;;;;;;;;;;;;;
2021/07/30 19:53:27;;;;;;;7.2;4.6;;;;;;;;;;;;;
2021/07/30 19:55:53;;;;;;;6.5;4.8;;;;;;;;;;;;;
2021/07/30 19:58:20;;;;;;;6.6;4.4;;;;;;;;;;;;;
2021/07/30 20:00:45;;;;;;;5.9;4;;;;;;;;;;;;;
2021/07/30 20:03:10;;;;;;;5.6;4.3;;;;;;;;;;;;;
2021/07/30 20:05:36;;;;;;;5.6;3.7;;;;;;;;;;;;;
2021/07/30 20:08:01;;;;;;;4.7;3.8;;;;;;;;;;;;;
2021/07/30 20:10:27;;;;;;;4.6;3.6;;;;;;;;;;;;;
2021/07/30 20:12:52;;;;;;;4.5;3.5;;;;;;;;;;;;;
2021/07/30 20:15:20;;;;;;;3.6;3.1;;;;;;;;;;;;;
2021/07/30 20:17:45;;;;;;;6.6;4;;;;;;;;;;;;;
2021/07/30 20:20:13;;;;;;;5.2;4;;;;;;;;;;;;;
2021/07/30 20:22:37;;;;;;;5.2;4;;;;;;;;;;;;;
2021/07/30 20:25:02;;;;;;;4.6;3.9;;;;;;;;;;;;;
2021/07/30 20:27:27;;;;;;;4.7;3.9;;;;;;;;;;;;;
2021/07/30 20:29:53;;;;;;;4.9;4.2;;;;;;;;;;;;;
2021/07/30 20:32:17;;;;;;;5.8;4.6;;;;;;;;;;;;;
2021/07/30 20:34:43;;;;;;;6.1;4.2;;;;;;;;;;;;;
2021/07/30 20:37:08;;;;;;;5.9;4.3;;;;;;;;;;;;;
2021/07/30 20:39:34;;;;;;;5.2;4.2;;;;;;;;;;;;;
2021/07/30 20:41:59;;;;;;;6.2;4.5;;;;;;;;;;;;;
2021/07/30 20:44:26;;;;;;;6.2;4.7;;;;;;;;;;;;;
2021/07/30 20:46:51;;;;;;;5.8;4.5;;;;;;;;;;;;;
2021/07/30 20:49:20;;;;;;;4.8;4.3;;;;;;;;;;;;;
